Time;durP1;ratioP1;P1;durP2;ratioP2;P2;SDS_P1;SDS_P2;PMS_P1;PMS_P2;Temp;Humidity;BMP_temperature;BMP_pressure;BME280_temperature;BME280_humidity;BME280_pressure;Samples;Min_cycle;Max_cycle;Signal;HPM_P1;HPM_P2
2023/09/30 00:01:47;;;;;;;16.02;4.88;;;;;;;12.41;93.46;101271.84;10133518;29;20155;-78
2023/09/30 00:06:52;;;;;;;18.30;4.95;;;;;;;12.05;96.56;101281.63;10134180;29;20134;-77
2023/09/30 00:11:55;;;;;;;17.10;4.75;;;;;;;11.73;98.42;101284.81;10135153;29;20055;-78
2023/09/30 00:16:59;;;;;;;20.02;5.65;;;;;;;12.06;96.48;101280.66;10140220;29;20055;-78
2023/09/30 00:22:04;;;;;;;19.27;5.30;;;;;;;11.77;97.91;101273.84;10134685;29;20059;-78
2023/09/30 00:27:07;;;;;;;22.52;6.78;;;;;;;11.75;98.31;101273.09;10130463;29;20070;-78
2023/09/30 00:32:10;;;;;;;14.95;4.53;;;;;;;11.87;97.83;101282.97;10138654;29;20051;-78
2023/09/30 00:37:14;;;;;;;12.57;5.22;;;;;;;11.74;98.36;101285.69;10142800;29;20127;-77
2023/09/30 00:42:18;;;;;;;24.45;4.75;;;;;;;11.73;98.81;101298.28;10125149;29;20423;-78
2023/09/30 00:47:21;;;;;;;18.80;4.95;;;;;;;11.60;99.63;101307.31;10132851;29;20547;-78
2023/09/30 00:52:25;;;;;;;20.33;4.95;;;;;;;11.60;99.09;101310.03;10125051;29;20048;-77
2023/09/30 00:57:28;;;;;;;18.90;4.47;;;;;;;11.42;100.00;101315.75;10134649;29;20423;-78
2023/09/30 01:02:31;;;;;;;18.33;4.60;;;;;;;11.45;99.96;101315.53;10130494;29;20134;-78
2023/09/30 01:07:37;;;;;;;17.40;5.38;;;;;;;11.39;100.00;101312.41;10147419;29;20103;-78
2023/09/30 01:12:40;;;;;;;17.65;5.25;;;;;;;11.51;100.00;101306.16;10131684;29;20051;-78
2023/09/30 01:17:42;;;;;;;16.27;4.90;;;;;;;11.70;97.96;101298.50;10138866;29;20048;-78
2023/09/30 01:22:47;;;;;;;16.50;4.22;;;;;;;11.84;97.52;101310.97;10126762;29;20127;-78
2023/09/30 01:27:51;;;;;;;15.07;4.50;;;;;;;11.82;97.14;101298.59;10125858;29;20044;-80
2023/09/30 01:32:54;;;;;;;16.55;4.32;;;;;;;11.82;97.05;101290.50;10124226;29;20066;-77
2023/09/30 01:37:59;;;;;;;17.25;4.82;;;;;;;11.65;98.85;101305.19;10134113;29;20052;-77
2023/09/30 01:43:02;;;;;;;19.08;5.00;;;;;;;11.82;97.86;101302.16;10129038;29;21224;-77
2023/09/30 01:48:06;;;;;;;16.60;4.32;;;;;;;12.00;96.33;101305.34;10128930;29;21343;-77
2023/09/30 01:53:10;;;;;;;21.45;4.68;;;;;;;12.09;95.82;101312.75;10133718;29;20050;-77
2023/09/30 01:58:13;;;;;;;18.17;4.63;;;;;;;12.04;95.91;101314.06;10127549;29;20059;-77
2023/09/30 02:03:17;;;;;;;20.10;4.05;;;;;;;12.11;95.51;101307.25;10121474;29;20419;-77
2023/09/30 02:08:22;;;;;;;16.05;4.72;;;;;;;12.20;94.95;101313.81;10127674;29;20063;-78
2023/09/30 02:13:25;;;;;;;21.67;4.22;;;;;;;12.15;94.40;101314.16;10131775;29;20056;-78
2023/09/30 02:18:28;;;;;;;16.17;5.05;;;;;;;12.05;95.21;101318.47;10128257;29;20055;-78
2023/09/30 02:23:33;;;;;;;15.00;4.00;;;;;;;12.00;95.54;101323.34;10129675;29;20548;-77
2023/09/30 02:28:36;;;;;;;16.17;4.57;;;;;;;11.91;96.34;101343.72;10134025;29;20078;-77
2023/09/30 02:33:39;;;;;;;13.18;4.13;;;;;;;11.99;95.82;101341.34;10123859;29;20605;-77
2023/09/30 02:38:46;;;;;;;17.13;4.72;;;;;;;12.06;94.89;101344.44;10126913;29;20063;-77
2023/09/30 02:43:49;;;;;;;15.68;5.22;;;;;;;12.02;95.24;101341.09;10128483;29;20495;-78
2023/09/30 02:48:53;;;;;;;19.90;5.13;;;;;;;12.08;94.85;101323.66;10144777;29;20104;-77
2023/09/30 02:53:57;;;;;;;16.17;4.60;;;;;;;12.08;94.47;101320.94;10118199;29;20048;-77
2023/09/30 02:59:01;;;;;;;19.63;5.00;;;;;;;11.92;95.16;101337.34;10124165;29;20059;-77
2023/09/30 03:04:06;;;;;;;17.80;4.65;;;;;;;11.98;95.40;101347.66;10143729;29;20055;-77
2023/09/30 03:09:15;;;;;;;26.60;4.30;;;;;;;11.78;96.44;101359.00;10128724;29;20047;-77
2023/09/30 03:14:18;;;;;;;15.10;4.38;;;;;;;11.69;96.60;101356.00;10133573;29;20125;-77
2023/09/30 03:19:21;;;;;;;13.68;4.32;;;;;;;11.92;95.20;101343.59;10141182;29;20080;-77
2023/09/30 03:24:25;;;;;;;23.70;4.90;;;;;;;11.91;94.95;101330.25;10138208;29;20048;-77
2023/09/30 03:29:28;;;;;;;18.92;4.20;;;;;;;11.88;95.12;101327.78;10136332;29;20106;-77
2023/09/30 03:34:31;;;;;;;17.92;4.72;;;;;;;11.88;95.07;101319.72;10137244;29;20055;-77
2023/09/30 03:39:35;;;;;;;14.73;4.43;;;;;;;11.81;95.26;101326.50;10134926;29;20052;-77
2023/09/30 03:44:38;;;;;;;19.45;4.80;;;;;;;11.76;95.50;101336.72;10126964;29;20044;-77
2023/09/30 03:49:41;;;;;;;22.15;5.13;;;;;;;11.56;97.06;101340.81;10146024;29;20052;-77
2023/09/30 03:54:45;;;;;;;24.08;4.55;;;;;;;11.62;96.99;101345.78;10136477;29;20068;-77
2023/09/30 03:59:48;;;;;;;17.73;5.05;;;;;;;11.68;96.26;101340.84;10136063;29;20378;-77
2023/09/30 04:04:53;;;;;;;19.42;4.90;;;;;;;11.69;96.12;101344.38;10127713;29;20525;-77
2023/09/30 04:10:01;;;;;;;18.58;5.03;;;;;;;11.38;98.57;101349.22;10135259;29;20052;-76
2023/09/30 04:15:05;;;;;;;23.30;5.38;;;;;;;11.60;96.72;101343.19;10131567;29;20975;-76
2023/09/30 04:20:10;;;;;;;22.45;5.00;;;;;;;11.54;96.93;101335.53;10140074;29;20063;-77
2023/09/30 04:25:16;;;;;;;22.80;4.88;;;;;;;11.56;96.95;101349.75;10134359;29;20126;-77
2023/09/30 04:30:19;;;;;;;23.38;6.57;;;;;;;11.53;96.93;101341.91;10130639;29;20052;-77
2023/09/30 04:35:22;;;;;;;19.45;6.35;;;;;;;11.48;97.11;101335.97;10130142;29;20048;-77
2023/09/30 04:40:27;;;;;;;22.52;5.55;;;;;;;11.46;97.04;101333.41;10133846;29;20419;-77
2023/09/30 04:45:29;;;;;;;21.73;6.38;;;;;;;11.43;96.91;101338.13;10132897;29;20052;-77
2023/09/30 04:50:32;;;;;;;18.13;5.60;;;;;;;11.32;97.46;101354.13;10132060;29;20052;-77
2023/09/30 04:55:37;;;;;;;20.55;6.63;;;;;;;11.39;97.05;101356.31;10132009;29;20523;-77
2023/09/30 05:00:40;;;;;;;18.02;4.78;;;;;;;11.43;97.00;101347.03;10126891;29;20071;-77
2023/09/30 05:05:43;;;;;;;22.73;6.07;;;;;;;11.41;97.07;101354.38;10131549;29;20047;-78
2023/09/30 05:10:48;;;;;;;23.88;5.97;;;;;;;11.37;97.63;101360.94;10135695;29;20072;-78
2023/09/30 05:15:51;;;;;;;21.30;6.38;;;;;;;11.39;97.70;101371.59;10138663;29;20060;-78
2023/09/30 05:20:54;;;;;;;21.25;5.88;;;;;;;11.41;97.60;101366.94;10127266;29;20137;-78
2023/09/30 05:25:58;;;;;;;18.77;6.57;;;;;;;11.34;98.03;101371.91;10126174;29;20507;-78
2023/09/30 05:31:02;;;;;;;18.88;6.60;;;;;;;11.34;98.16;101377.28;10131689;29;20536;-78
2023/09/30 05:36:05;;;;;;;21.23;7.03;;;;;;;11.41;98.00;101377.72;10144912;29;20055;-78
2023/09/30 05:41:11;;;;;;;21.50;6.80;;;;;;;11.49;97.52;101373.56;10136852;29;20067;-78
2023/09/30 05:46:16;;;;;;;22.90;7.05;;;;;;;11.48;97.67;101373.63;10142081;29;20062;-77
2023/09/30 05:51:19;;;;;;;21.73;7.95;;;;;;;11.63;96.88;101388.72;10135710;29;20056;-78
2023/09/30 05:56:23;;;;;;;27.15;7.03;;;;;;;11.65;96.28;101388.59;10124649;29;20496;-78
2023/09/30 06:01:27;;;;;;;23.65;6.93;;;;;;;11.73;95.98;101403.25;10131544;29;20527;-78
2023/09/30 06:06:30;;;;;;;23.00;7.10;;;;;;;11.72;96.20;101404.22;10132094;29;20048;-78
2023/09/30 06:11:35;;;;;;;22.67;7.38;;;;;;;11.64;96.41;101406.59;10131949;29;20575;-78
2023/09/30 06:16:38;;;;;;;21.27;7.40;;;;;;;11.59;97.25;101432.09;10131505;29;20123;-78
2023/09/30 06:21:42;;;;;;;19.05;7.28;;;;;;;11.82;95.38;101427.81;10130657;29;20059;-78
2023/09/30 06:26:48;;;;;;;26.25;7.32;;;;;;;11.98;94.57;101415.00;10128669;29;20044;-78
2023/09/30 06:31:51;;;;;;;25.58;8.52;;;;;;;12.05;93.66;101427.06;10137008;29;21101;-78
2023/09/30 06:36:54;;;;;;;22.85;7.10;;;;;;;11.94;93.95;101433.19;10139206;29;20055;-78
2023/09/30 06:41:58;;;;;;;19.02;7.28;;;;;;;11.88;94.43;101432.78;10139752;29;20063;-78
2023/09/30 06:47:01;;;;;;;19.38;7.20;;;;;;;12.28;93.12;101444.31;10137979;29;20716;-78
2023/09/30 06:52:04;;;;;;;19.80;6.82;;;;;;;12.46;91.55;101434.03;10131866;29;20068;-78
2023/09/30 06:57:09;;;;;;;21.80;6.45;;;;;;;12.65;90.03;101435.41;10138124;29;20059;-78
2023/09/30 07:02:12;;;;;;;19.25;7.32;;;;;;;12.82;89.32;101443.09;10134504;29;20098;-78
2023/09/30 07:07:16;;;;;;;20.88;6.22;;;;;;;13.10;87.18;101428.41;10153055;29;20693;-78
2023/09/30 07:12:20;;;;;;;22.15;7.65;;;;;;;13.20;86.72;101458.28;10147562;29;20632;-78
2023/09/30 07:17:23;;;;;;;23.63;8.07;;;;;;;13.23;86.70;101456.19;10145562;29;20052;-77
2023/09/30 07:22:26;;;;;;;21.33;7.50;;;;;;;13.33;86.51;101452.78;10145441;29;20052;-77
2023/09/30 07:27:52;;;;;;;21.52;7.38;;;;;;;13.62;85.52;101461.41;10148380;29;20083;-78
2023/09/30 07:32:55;;;;;;;17.60;7.07;;;;;;;13.84;83.68;101466.00;10143595;28;20056;-78
2023/09/30 07:38:00;;;;;;;20.20;8.90;;;;;;;14.10;82.36;101464.81;10146166;28;20047;-78
2023/09/30 07:43:05;;;;;;;18.35;8.20;;;;;;;14.56;82.01;101484.63;10141602;29;20802;-76
2023/09/30 07:48:09;;;;;;;18.15;7.63;;;;;;;14.78;78.63;101481.06;10128717;29;20060;-78
2023/09/30 07:53:13;;;;;;;22.02;8.38;;;;;;;14.90;77.94;101482.78;10145378;28;20051;-79
2023/09/30 07:58:17;;;;;;;18.30;8.43;;;;;;;15.13;77.49;101483.56;10159272;28;20063;-79
2023/09/30 08:03:20;;;;;;;21.95;8.45;;;;;;;15.33;77.49;101490.03;10151485;28;20052;-78
2023/09/30 08:08:24;;;;;;;20.17;8.82;;;;;;;15.80;76.21;101495.16;10160527;29;21060;-78
2023/09/30 08:13:29;;;;;;;18.35;7.38;;;;;;;16.07;74.22;101487.34;10137493;29;20051;-78
2023/09/30 08:18:32;;;;;;;18.80;7.57;;;;;;;16.15;73.13;101492.06;10140320;29;20522;-78
2023/09/30 08:23:35;;;;;;;17.95;7.65;;;;;;;16.40;73.44;101496.25;10161665;29;20043;-78
2023/09/30 08:28:39;;;;;;;13.32;6.88;;;;;;;16.31;73.11;101505.19;10140892;29;20064;-77
2023/09/30 08:33:45;;;;;;;14.93;5.60;;;;;;;16.44;70.88;101511.25;10138402;29;20056;-77
2023/09/30 08:38:48;;;;;;;15.65;6.22;;;;;;;16.32;70.54;101509.63;10143264;29;20135;-77
2023/09/30 08:43:57;;;;;;;17.25;6.95;;;;;;;16.59;70.03;101518.03;10139006;29;20048;-77
2023/09/30 08:49:02;;;;;;;11.07;5.57;;;;;;;16.90;69.08;101511.72;10143337;29;20428;-80
2023/09/30 08:54:06;;;;;;;16.10;6.85;;;;;;;16.91;69.43;101517.00;10145580;29;20056;-79
2023/09/30 08:59:12;;;;;;;16.92;6.22;;;;;;;16.51;69.31;101512.44;10146745;29;20052;-79
2023/09/30 09:04:16;;;;;;;11.50;6.50;;;;;;;16.88;69.82;101525.41;10141746;29;20048;-79
2023/09/30 09:09:22;;;;;;;12.15;6.43;;;;;;;17.25;67.18;101525.69;10165897;28;21216;-79
2023/09/30 09:14:39;;;;;;;12.65;6.00;;;;;;;16.94;67.40;101524.00;10168107;28;20071;-79
2023/09/30 09:19:42;;;;;;;11.90;6.60;;;;;;;17.08;68.56;101531.75;10166935;28;20052;-80
2023/09/30 09:24:46;;;;;;;13.80;7.07;;;;;;;17.48;67.08;101522.69;10164578;28;20056;-80
2023/09/30 09:29:51;;;;;;;17.08;8.20;;;;;;;17.23;67.60;101516.81;10156821;28;20052;-80
2023/09/30 09:35:03;;;;;;;15.20;6.80;;;;;;;16.79;70.61;101527.09;10167722;28;20052;-79
2023/09/30 09:40:07;;;;;;;14.82;7.50;;;;;;;17.33;66.61;101524.97;10163913;29;20149;-79
2023/09/30 09:45:13;;;;;;;15.75;6.82;;;;;;;17.08;67.14;101529.03;10169953;28;20052;-78
2023/09/30 09:50:17;;;;;;;16.05;6.68;;;;;;;17.06;67.03;101535.59;10194914;28;20141;-79
2023/09/30 09:55:21;;;;;;;15.55;7.07;;;;;;;17.65;66.20;101513.81;10189972;29;20045;-78
2023/09/30 10:00:29;;;;;;;16.50;7.18;;;;;;;17.77;63.48;101522.72;10192240;28;20116;-78
2023/09/30 10:05:33;;;;;;;11.70;6.78;;;;;;;17.57;65.42;101510.97;10175353;28;20059;-79
2023/09/30 10:10:38;;;;;;;18.88;8.00;;;;;;;17.81;64.81;101512.41;10171763;28;20051;-79
2023/09/30 10:15:43;;;;;;;14.82;7.03;;;;;;;18.33;61.68;101508.31;10169071;28;20059;-79
2023/09/30 10:20:48;;;;;;;10.52;5.40;;;;;;;18.76;59.18;101506.00;10157997;29;20055;-80
2023/09/30 10:25:57;;;;;;;16.58;5.97;;;;;;;19.07;62.22;101511.16;10152360;28;20051;-79
2023/09/30 10:31:13;;;;;;;14.52;5.65;;;;;;;18.99;58.51;101514.66;10164634;28;20140;-79
2023/09/30 10:36:27;;;;;;;13.32;5.25;;;;;;;18.36;61.44;101528.91;10175380;28;20711;-79
2023/09/30 10:41:52;;;;;;;14.77;5.80;;;;;;;19.53;57.93;101514.69;10154964;29;20131;-79
2023/09/30 10:46:59;;;;;;;14.70;4.75;;;;;;;21.56;52.85;101500.47;10175126;29;20048;-78
2023/09/30 10:52:03;;;;;;;13.77;5.10;;;;;;;22.51;48.60;101508.94;10182746;28;20062;-78
2023/09/30 10:57:06;;;;;;;8.02;3.38;;;;;;;20.71;51.38;101510.66;10185010;29;20052;-78
2023/09/30 11:02:20;;;;;;;8.57;3.90;;;;;;;19.98;52.37;101522.78;10171629;28;20063;-78
2023/09/30 11:07:25;;;;;;;8.60;3.95;;;;;;;20.94;51.95;101513.63;10167201;29;20577;-78
2023/09/30 11:12:28;;;;;;;9.45;3.85;;;;;;;21.09;50.01;101522.06;10167833;28;20048;-79
2023/09/30 11:17:32;;;;;;;8.45;3.42;;;;;;;21.44;49.54;101520.94;10181362;29;20054;-79
2023/09/30 11:22:35;;;;;;;7.70;3.00;;;;;;;21.01;49.51;101514.69;10183671;28;20048;-78
2023/09/30 11:27:39;;;;;;;9.07;3.58;;;;;;;20.24;49.10;101511.03;10162644;29;20056;-77
2023/09/30 11:32:44;;;;;;;8.52;3.20;;;;;;;21.75;47.05;101502.06;10166286;28;20048;-79
2023/09/30 11:37:48;;;;;;;8.60;3.58;;;;;;;21.52;48.98;101504.56;10165440;28;20075;-78
2023/09/30 11:43:12;;;;;;;9.32;3.75;;;;;;;21.35;48.52;101506.44;10154165;28;20056;-78
2023/09/30 11:48:20;;;;;;;13.50;3.55;;;;;;;21.80;47.90;101504.25;10153694;28;20158;-77
2023/09/30 11:53:25;;;;;;;8.63;3.22;;;;;;;21.07;49.92;101491.34;10152025;28;20054;-77
2023/09/30 11:58:28;;;;;;;7.38;3.35;;;;;;;19.68;51.03;101491.34;10157663;28;21223;-78
2023/09/30 12:03:36;;;;;;;7.03;2.85;;;;;;;18.32;55.18;101497.56;10145046;28;20071;-77
2023/09/30 12:08:39;;;;;;;12.50;3.13;;;;;;;20.45;48.53;101488.84;10144000;28;20063;-77
2023/09/30 12:13:44;;;;;;;9.68;3.05;;;;;;;21.20;46.89;101469.84;10143198;28;20590;-78
2023/09/30 12:18:48;;;;;;;8.45;2.90;;;;;;;21.34;47.14;101466.47;10141218;29;20051;-78
2023/09/30 12:23:51;;;;;;;5.82;2.50;;;;;;;20.48;48.66;101459.34;10129426;29;20044;-78
2023/09/30 12:28:54;;;;;;;5.70;2.80;;;;;;;20.71;47.67;101447.84;10145003;29;20060;-79
2023/09/30 12:33:59;;;;;;;6.78;2.78;;;;;;;21.15;46.93;101443.03;10141624;29;20108;-79
2023/09/30 12:39:10;;;;;;;10.15;3.28;;;;;;;22.13;nan;101441.28;10147686;29;20044;-79
2023/09/30 12:44:13;;;;;;;9.77;3.40;;;;;;;22.30;44.19;101437.50;10131395;29;20110;-78
2023/09/30 12:49:18;;;;;;;10.85;3.47;;;;;;;23.04;42.40;101431.66;10143252;29;20059;-78
2023/09/30 12:54:21;;;;;;;9.45;2.78;;;;;;;22.82;43.36;101427.84;10140570;29;20060;-79
2023/09/30 12:59:25;;;;;;;7.93;3.17;;;;;;;24.17;41.12;101425.41;10138298;29;20067;-78
2023/09/30 13:04:30;;;;;;;6.82;2.63;;;;;;;24.54;38.47;101427.19;10135117;29;20059;-78
2023/09/30 13:09:33;;;;;;;6.20;2.80;;;;;;;24.05;40.24;101427.75;10139448;29;20052;-78
2023/09/30 13:14:36;;;;;;;6.85;2.40;;;;;;;24.16;39.54;101429.19;10138264;29;20065;-78
2023/09/30 13:19:41;;;;;;;10.15;3.08;;;;;;;24.91;39.18;101409.69;10136845;29;20136;-78
2023/09/30 13:24:44;;;;;;;7.38;2.30;;;;;;;26.68;36.58;101406.81;10154828;29;20127;-79
2023/09/30 13:29:47;;;;;;;6.00;2.88;;;;;;;25.34;36.64;101403.38;10162454;29;20063;-80
2023/09/30 13:34:51;;;;;;;9.90;2.60;;;;;;;24.78;38.99;101400.44;10137853;29;20530;-79
2023/09/30 13:39:54;;;;;;;6.05;2.67;;;;;;;24.04;40.83;101401.38;10125286;29;20060;-79
2023/09/30 13:44:58;;;;;;;5.50;2.40;;;;;;;24.16;39.88;101407.22;10134393;29;20472;-78
2023/09/30 13:50:04;;;;;;;6.88;2.80;;;;;;;24.31;38.67;101391.59;10136044;29;20054;-79
2023/09/30 13:55:08;;;;;;;5.78;2.20;;;;;;;23.82;38.80;101394.91;10125630;29;20434;-79
2023/09/30 14:00:13;;;;;;;8.18;2.40;;;;;;;24.84;38.67;101394.16;10134639;29;20621;-78
2023/09/30 14:05:17;;;;;;;6.03;2.67;;;;;;;22.88;40.78;101383.34;10135306;29;20048;-78
2023/09/30 14:10:20;;;;;;;6.60;2.50;;;;;;;22.31;41.14;101388.03;10136186;29;20052;-78
2023/09/30 14:15:23;;;;;;;5.63;2.55;;;;;;;21.35;43.96;101385.31;10181540;29;20055;-77
2023/09/30 14:20:27;;;;;;;5.40;2.50;;;;;;;22.64;41.29;101374.22;10152519;29;20060;-79
2023/09/30 14:25:30;;;;;;;8.13;2.72;;;;;;;24.03;39.47;101374.97;10141142;29;21209;-79
2023/09/30 14:30:33;;;;;;;5.43;2.00;;;;;;;22.49;42.08;101374.16;10142950;29;21158;-78
2023/09/30 14:35:38;;;;;;;6.53;2.63;;;;;;;23.06;41.20;101345.50;10148933;29;20066;-78
2023/09/30 14:40:42;;;;;;;5.43;2.50;;;;;;;22.14;42.84;101334.44;10143002;29;20067;-78
2023/09/30 14:45:45;;;;;;;8.38;2.83;;;;;;;20.79;43.77;101334.06;10140617;29;20064;-78
2023/09/30 14:50:50;;;;;;;6.38;2.47;;;;;;;21.54;44.34;101318.53;10141019;29;20051;-78
2023/09/30 14:55:53;;;;;;;5.00;2.40;;;;;;;21.54;44.42;101327.56;10137359;29;21288;-79
2023/09/30 15:00:56;;;;;;;6.78;2.67;;;;;;;20.31;45.51;101323.88;10147916;29;20595;-78
2023/09/30 15:06:01;;;;;;;5.20;2.58;;;;;;;21.15;44.68;101311.06;10145614;29;20059;-78
2023/09/30 15:11:04;;;;;;;4.85;2.58;;;;;;;20.89;45.30;101317.50;10142409;29;20048;-78
2023/09/30 15:16:16;;;;;;;6.28;2.30;;;;;;;20.72;46.39;101335.75;10144120;29;20036;-78
2023/09/30 15:21:20;;;;;;;4.87;2.43;;;;;;;20.32;47.22;101322.84;10145236;29;20052;-77
2023/09/30 15:26:23;;;;;;;6.35;2.03;;;;;;;20.06;47.62;101329.19;10147431;29;20409;-77
2023/09/30 15:31:29;;;;;;;9.20;2.90;;;;;;;19.76;48.34;101335.19;10149921;29;20115;-77
2023/09/30 15:36:33;;;;;;;5.97;2.50;;;;;;;19.21;49.08;101341.75;10147578;29;20519;-77
2023/09/30 15:41:36;;;;;;;5.22;2.60;;;;;;;19.43;48.87;101337.69;10158472;29;20058;-77
2023/09/30 15:46:40;;;;;;;8.45;3.40;;;;;;;18.69;49.96;101336.16;10155803;29;20055;-78
2023/09/30 15:51:44;;;;;;;7.57;2.90;;;;;;;18.62;50.13;101338.63;10139582;29;20056;-78
2023/09/30 15:56:47;;;;;;;6.53;2.50;;;;;;;18.79;50.49;101332.38;10164654;28;20052;-77
2023/09/30 16:01:58;;;;;;;5.55;2.92;;;;;;;18.64;49.86;101331.16;10157262;29;20087;-78
2023/09/30 16:07:03;;;;;;;8.23;3.33;;;;;;;18.66;50.38;101331.88;10138022;29;20055;-78
2023/09/30 16:12:06;;;;;;;9.57;3.10;;;;;;;18.59;51.12;101338.94;10154162;28;20048;-78
2023/09/30 16:17:09;;;;;;;7.03;2.60;;;;;;;18.47;51.65;101335.59;10151364;28;20048;-78
2023/09/30 16:22:13;;;;;;;6.28;2.90;;;;;;;17.92;52.56;101339.13;10154826;29;20048;-77
2023/09/30 16:27:17;;;;;;;8.55;3.55;;;;;;;17.81;52.85;101344.75;10154959;28;20592;-76
2023/09/30 16:32:20;;;;;;;7.53;2.90;;;;;;;17.41;54.16;101340.41;10165638;29;20100;-77
2023/09/30 16:37:24;;;;;;;7.72;3.70;;;;;;;17.34;54.47;101342.03;10149549;28;20059;-75
2023/09/30 16:42:28;;;;;;;6.22;3.28;;;;;;;17.25;54.88;101348.31;10132376;29;20098;-75
2023/09/30 16:47:32;;;;;;;8.60;4.00;;;;;;;17.11;55.01;101337.88;10131312;29;20060;-76
2023/09/30 16:52:36;;;;;;;9.18;4.40;;;;;;;16.90;55.71;101343.47;10136856;28;20122;-76
2023/09/30 16:57:40;;;;;;;11.00;4.72;;;;;;;16.72;56.45;101329.72;10144598;28;20111;-76
2023/09/30 17:02:44;;;;;;;9.05;3.80;;;;;;;16.76;55.48;101326.59;10140586;28;20063;-76
2023/09/30 17:07:49;;;;;;;8.25;4.85;;;;;;;16.75;56.63;101330.28;10142131;29;20166;-78
2023/09/30 17:12:52;;;;;;;12.35;5.00;;;;;;;16.52;57.88;101345.13;10144287;29;20059;-77
2023/09/30 17:17:54;;;;;;;6.57;4.20;;;;;;;16.39;58.79;101341.81;10147580;28;20602;-77
2023/09/30 17:22:59;;;;;;;11.95;4.38;;;;;;;16.29;59.30;101337.25;10133800;29;20056;-77
2023/09/30 17:28:02;;;;;;;10.15;4.68;;;;;;;16.22;60.17;101341.47;10130806;29;20083;-76
2023/09/30 17:33:05;;;;;;;8.25;5.25;;;;;;;16.13;60.99;101353.97;10129421;29;20052;-76
2023/09/30 17:38:10;;;;;;;9.85;4.35;;;;;;;16.11;60.60;101358.69;10129927;29;21344;-77
2023/09/30 17:43:12;;;;;;;9.23;4.00;;;;;;;16.01;61.19;101357.78;10130141;29;20060;-77
2023/09/30 17:48:16;;;;;;;9.40;3.78;;;;;;;15.96;61.74;101351.91;10139084;29;20079;-77
2023/09/30 17:53:21;;;;;;;8.50;3.95;;;;;;;15.92;61.65;101362.16;10138994;29;20048;-79
2023/09/30 17:58:23;;;;;;;6.15;3.47;;;;;;;15.77;62.78;101358.13;10152548;28;20563;-77
2023/09/30 18:03:27;;;;;;;7.80;3.67;;;;;;;15.79;62.78;101357.97;10141042;28;20051;-77
2023/09/30 18:08:31;;;;;;;11.50;3.72;;;;;;;15.62;63.40;101357.59;10144906;28;20052;-77
2023/09/30 18:13:34;;;;;;;7.78;3.38;;;;;;;15.65;63.71;101365.44;10144406;28;20782;-77
2023/09/30 18:18:38;;;;;;;6.63;3.50;;;;;;;15.47;64.23;101351.66;10143032;28;20060;-79
2023/09/30 18:23:43;;;;;;;9.10;3.85;;;;;;;15.47;64.37;101362.50;10144320;28;20189;-78
2023/09/30 18:28:46;;;;;;;6.72;3.50;;;;;;;15.58;63.69;101358.88;10169936;28;20063;-77
2023/09/30 18:33:49;;;;;;;5.85;3.38;;;;;;;15.70;63.86;101355.06;10159954;29;20052;-78
2023/09/30 18:38:53;;;;;;;10.65;3.33;;;;;;;15.68;63.64;101354.34;10149834;29;20151;-77
2023/09/30 18:43:56;;;;;;;9.32;3.40;;;;;;;15.66;63.68;101348.22;10141354;29;20443;-77
2023/09/30 18:49:00;;;;;;;9.80;4.05;;;;;;;15.68;63.73;101350.78;10139414;29;20130;-78
2023/09/30 18:54:06;;;;;;;7.07;3.45;;;;;;;15.68;63.56;101362.47;10138349;29;20060;-78
2023/09/30 18:59:20;;;;;;;7.82;3.67;;;;;;;15.56;62.67;101358.13;10141993;29;20104;-78
2023/09/30 19:04:23;;;;;;;10.98;4.25;;;;;;;15.51;63.56;101368.50;10139996;29;20056;-77
2023/09/30 19:09:27;;;;;;;9.05;4.05;;;;;;;15.50;63.23;101372.22;10139787;29;20427;-77
2023/09/30 19:14:30;;;;;;;10.45;4.80;;;;;;;15.56;62.27;101359.97;10135060;29;20059;-77
2023/09/30 19:19:33;;;;;;;7.15;3.72;;;;;;;15.60;61.43;101361.41;10141704;29;20448;-78
2023/09/30 19:24:37;;;;;;;9.20;4.45;;;;;;;15.45;62.00;101360.91;10132790;29;20059;-78
2023/09/30 19:29:40;;;;;;;10.77;4.55;;;;;;;15.65;61.78;101367.28;10136324;29;20274;-77
2023/09/30 19:34:44;;;;;;;9.55;5.78;;;;;;;15.55;61.62;101359.13;10146919;29;20095;-79
2023/09/30 19:39:48;;;;;;;8.32;4.72;;;;;;;15.58;61.56;101358.88;10145107;28;20055;-79
2023/09/30 19:44:51;;;;;;;12.65;5.32;;;;;;;15.47;62.08;101358.94;10149848;29;20127;-77
2023/09/30 19:49:54;;;;;;;13.43;5.00;;;;;;;15.45;61.86;101361.75;10149823;29;20721;-77
2023/09/30 19:54:58;;;;;;;9.10;4.78;;;;;;;15.34;62.54;101359.13;10138539;29;20064;-79
2023/09/30 20:00:03;;;;;;;9.65;4.60;;;;;;;15.29;62.97;101355.06;10145581;29;20135;-78
2023/09/30 20:05:08;;;;;;;8.57;4.38;;;;;;;15.25;63.19;101357.19;10142439;29;20059;-77
2023/09/30 20:10:12;;;;;;;12.73;4.88;;;;;;;15.26;63.04;101348.91;10137442;29;20048;-78
2023/09/30 20:15:15;;;;;;;9.35;4.55;;;;;;;15.31;63.25;101340.41;10140281;29;20063;-78
2023/09/30 20:20:19;;;;;;;9.10;4.85;;;;;;;15.30;63.54;101346.78;10143192;29;20051;-78
2023/09/30 20:25:25;;;;;;;8.82;5.57;;;;;;;15.39;62.75;101337.94;10139284;29;20055;-78
2023/09/30 20:30:28;;;;;;;9.65;5.00;;;;;;;15.43;62.94;101333.97;10140414;29;20064;-77
2023/09/30 20:35:34;;;;;;;8.20;4.35;;;;;;;15.42;62.55;101316.00;10131709;29;20060;-77
2023/09/30 20:40:42;;;;;;;7.93;4.53;;;;;;;15.36;62.87;101329.19;10140425;29;20044;-77
2023/09/30 20:45:45;;;;;;;7.32;4.50;;;;;;;15.12;63.60;101324.91;10133961;29;20051;-77
2023/09/30 20:50:47;;;;;;;10.30;5.25;;;;;;;15.07;64.25;101324.41;10134912;29;20483;-77
2023/09/30 20:55:52;;;;;;;10.85;4.80;;;;;;;15.07;63.87;101334.41;10129200;29;20048;-76
2023/09/30 21:00:57;;;;;;;9.07;4.80;;;;;;;15.04;64.19;101333.66;10139380;29;20044;-77
2023/09/30 21:06:03;;;;;;;8.27;5.03;;;;;;;14.97;64.54;101334.31;10135400;29;20119;-77
2023/09/30 21:11:08;;;;;;;8.07;4.88;;;;;;;15.03;64.59;101339.22;10133509;29;21494;-77
2023/09/30 21:16:11;;;;;;;10.40;5.15;;;;;;;15.03;64.29;101331.94;10132354;29;20056;-77
2023/09/30 21:21:15;;;;;;;12.35;5.57;;;;;;;15.11;64.09;101323.19;10152117;29;20067;-77
2023/09/30 21:26:19;;;;;;;13.75;5.57;;;;;;;15.18;64.18;101313.53;10145197;29;20056;-77
2023/09/30 21:31:24;;;;;;;13.13;5.55;;;;;;;15.09;64.56;101327.88;10139238;29;20052;-77
2023/09/30 21:36:27;;;;;;;10.50;5.20;;;;;;;15.01;64.96;101325.81;10138246;29;20055;-78
2023/09/30 21:41:31;;;;;;;8.52;4.53;;;;;;;14.94;65.29;101329.16;10136630;29;20051;-77
2023/09/30 21:46:37;;;;;;;11.93;4.82;;;;;;;14.88;65.83;101341.34;10128345;29;20050;-77
2023/09/30 21:51:41;;;;;;;10.40;4.82;;;;;;;14.77;66.37;101339.53;10122103;29;20419;-77
2023/09/30 21:56:46;;;;;;;10.30;5.43;;;;;;;14.76;66.96;101337.00;10132150;29;20058;-77
2023/09/30 22:01:49;;;;;;;10.77;5.22;;;;;;;14.66;67.26;101346.84;10133881;29;20052;-78
2023/09/30 22:06:52;;;;;;;11.40;6.18;;;;;;;14.54;67.79;101351.44;10131508;29;20047;-78
2023/09/30 22:11:57;;;;;;;10.95;5.32;;;;;;;14.52;68.27;101348.84;10127745;29;20060;-77
2023/09/30 22:17:01;;;;;;;10.55;5.50;;;;;;;14.49;68.39;101332.03;10131958;29;20056;-78
2023/09/30 22:22:11;;;;;;;12.25;5.80;;;;;;;14.48;68.28;101330.28;10128508;29;20059;-77
2023/09/30 22:27:15;;;;;;;8.38;5.40;;;;;;;14.57;68.18;101327.69;10127463;29;20063;-77
2023/09/30 22:32:18;;;;;;;12.32;5.72;;;;;;;14.55;68.71;101328.81;10134118;29;20059;-77
2023/09/30 22:37:21;;;;;;;11.65;5.80;;;;;;;14.52;68.94;101346.16;10128773;29;20052;-76
2023/09/30 22:42:25;;;;;;;8.43;5.45;;;;;;;14.46;68.83;101324.19;10129147;29;20052;-77
2023/09/30 22:47:28;;;;;;;13.40;5.78;;;;;;;14.51;68.89;101317.41;10127706;29;20056;-77
2023/09/30 22:52:33;;;;;;;12.93;5.15;;;;;;;14.37;69.12;101321.22;10131265;29;20577;-76
2023/09/30 22:57:38;;;;;;;9.90;5.45;;;;;;;14.30;69.39;101316.44;10128738;29;20063;-78
2023/09/30 23:02:41;;;;;;;14.55;6.07;;;;;;;14.31;69.48;101323.53;10120732;29;20055;-76
2023/09/30 23:07:44;;;;;;;12.43;6.13;;;;;;;14.22;69.89;101311.66;10125638;29;20162;-76